Time;durP1;ratioP1;P1;durP2;ratioP2;P2;SDS_P1;SDS_P2;PMS_P1;PMS_P2;Temp;Humidity;BMP_temperature;BMP_pressure;BME280_temperature;BME280_humidity;BME280_pressure;Samples;Min_cycle;Max_cycle;Signal;HPM_P1;HPM_P2
2023/04/19 00:00:20;;;;;;;16.30;8.38;;;;;;;5.57;100.00;103085.66;10034509;28;20056;-74
2023/04/19 00:05:17;;;;;;;12.05;8.60;;;;;;;5.68;100.00;103079.44;10079612;28;20047;-73
2023/04/19 00:10:14;;;;;;;12.27;8.38;;;;;;;5.59;100.00;103069.97;10076238;28;20069;-73
2023/04/19 00:15:10;;;;;;;12.35;8.27;;;;;;;5.51;100.00;103069.44;10076044;28;20055;-73
2023/04/19 00:20:11;;;;;;;15.68;7.95;;;;;;;5.53;100.00;103062.72;10072760;28;20039;-70
2023/04/19 00:25:08;;;;;;;12.85;8.70;;;;;;;5.35;100.00;103060.00;10071110;28;20070;-75
2023/04/19 00:30:05;;;;;;;12.02;7.47;;;;;;;5.39;100.00;103056.63;10074938;28;20154;-75
2023/04/19 00:35:01;;;;;;;13.65;8.77;;;;;;;5.25;100.00;103055.94;10074673;28;20047;-71
2023/04/19 00:39:58;;;;;;;11.02;8.38;;;;;;;5.27;100.00;103050.28;10068746;28;20486;-70
2023/04/19 00:44:54;;;;;;;10.18;7.80;;;;;;;5.24;100.00;103054.28;10059558;28;20137;-70
2023/04/19 00:49:51;;;;;;;10.63;7.85;;;;;;;5.13;100.00;103046.88;10071894;28;20382;-71
2023/04/19 00:54:47;;;;;;;12.73;7.97;;;;;;;5.12;100.00;103050.63;10073632;28;20043;-71
2023/04/19 00:59:44;;;;;;;13.40;7.20;;;;;;;5.10;100.00;103050.03;10070400;28;20047;-71
2023/04/19 01:04:41;;;;;;;9.10;6.82;;;;;;;5.03;100.00;103046.56;10066568;28;20137;-71
2023/04/19 01:09:42;;;;;;;11.27;7.20;;;;;;;4.98;100.00;103049.13;10073965;28;20541;-71
2023/04/19 01:14:39;;;;;;;8.60;6.50;;;;;;;4.96;100.00;103052.03;10073466;28;20058;-70
2023/04/19 01:19:37;;;;;;;9.35;7.28;;;;;;;5.01;100.00;103057.66;10069137;28;20501;-70
2023/04/19 01:24:33;;;;;;;8.23;6.60;;;;;;;5.01;100.00;103051.38;10071590;28;20143;-70
2023/04/19 01:29:30;;;;;;;9.98;6.15;;;;;;;4.95;100.00;103055.00;10069457;28;20131;-70
2023/04/19 01:34:26;;;;;;;7.65;6.07;;;;;;;5.00;100.00;103060.56;10069317;28;20082;-76
2023/04/19 01:39:25;;;;;;;9.18;6.15;;;;;;;4.98;100.00;103054.53;10069071;28;20062;-72
2023/04/19 01:44:21;;;;;;;6.88;6.00;;;;;;;4.95;100.00;103053.09;10060422;28;20048;-72
2023/04/19 01:49:18;;;;;;;8.75;6.00;;;;;;;4.90;100.00;103052.94;10068349;28;20078;-71
2023/04/19 01:54:14;;;;;;;9.50;6.65;;;;;;;4.85;100.00;103045.47;10071478;28;20047;-71
2023/04/19 01:59:11;;;;;;;9.75;6.30;;;;;;;4.80;100.00;103039.91;10070931;28;20417;-72
2023/04/19 02:04:08;;;;;;;8.75;5.97;;;;;;;4.75;100.00;103034.28;10064314;28;20070;-76
2023/04/19 02:09:04;;;;;;;13.23;7.10;;;;;;;4.78;100.00;103033.00;10073325;28;20693;-77
2023/04/19 02:14:01;;;;;;;9.25;6.40;;;;;;;4.75;100.00;103023.44;10062302;28;20059;-77
2023/04/19 02:18:57;;;;;;;8.70;6.55;;;;;;;4.76;100.00;103027.84;10061669;28;20067;-76
2023/04/19 02:23:54;;;;;;;11.25;7.00;;;;;;;4.65;100.00;103028.56;10065951;28;20135;-77
2023/04/19 02:28:51;;;;;;;8.63;6.28;;;;;;;4.57;100.00;103026.97;10064123;28;20123;-77
2023/04/19 02:33:48;;;;;;;9.60;6.68;;;;;;;4.55;100.00;103022.78;10066412;28;20054;-70
2023/04/19 02:38:44;;;;;;;10.52;6.22;;;;;;;4.62;100.00;103029.00;10063330;28;20061;-72
2023/04/19 02:43:41;;;;;;;11.75;7.05;;;;;;;4.59;100.00;103018.59;10073906;28;20090;-72
2023/04/19 02:48:37;;;;;;;12.85;8.45;;;;;;;4.52;100.00;103023.25;10059341;28;20393;-73
2023/04/19 02:53:34;;;;;;;13.05;7.55;;;;;;;4.52;100.00;103017.81;10038588;28;20052;-73
2023/04/19 02:58:31;;;;;;;13.55;6.90;;;;;;;4.50;100.00;103025.34;10058510;28;20043;-71
2023/04/19 03:03:27;;;;;;;9.65;6.55;;;;;;;4.40;100.00;103018.53;10076614;28;20059;-72
2023/04/19 03:08:24;;;;;;;9.00;6.93;;;;;;;4.43;100.00;103009.97;10075846;28;20036;-73
2023/04/19 03:13:20;;;;;;;8.82;6.43;;;;;;;4.42;100.00;103013.72;10072240;28;20130;-77
2023/04/19 03:18:17;;;;;;;8.32;6.93;;;;;;;4.36;100.00;103003.78;10078641;28;20162;-77
2023/04/19 03:23:13;;;;;;;9.75;6.28;;;;;;;4.25;100.00;103004.50;10067238;28;20051;-76
2023/04/19 03:28:10;;;;;;;8.05;6.80;;;;;;;4.16;100.00;102997.69;10065932;28;20058;-70
2023/04/19 03:33:06;;;;;;;8.95;6.65;;;;;;;4.26;100.00;102992.59;10075106;28;20550;-75
2023/04/19 03:38:03;;;;;;;11.35;7.15;;;;;;;4.24;100.00;102994.69;10072597;28;20077;-75
2023/04/19 03:43:00;;;;;;;9.63;7.15;;;;;;;4.19;100.00;102989.09;10079785;28;20058;-74
2023/04/19 03:47:57;;;;;;;7.25;6.40;;;;;;;4.17;100.00;102988.50;10036122;28;20043;-74
2023/04/19 03:52:55;;;;;;;12.32;7.20;;;;;;;4.13;100.00;102985.41;10052853;28;20047;-75
2023/04/19 03:57:51;;;;;;;18.95;8.35;;;;;;;4.03;100.00;102992.34;10065738;28;20386;-76
2023/04/19 04:02:48;;;;;;;7.05;6.25;;;;;;;4.03;100.00;102982.34;10068605;28;20043;-75
2023/04/19 04:07:45;;;;;;;8.80;7.28;;;;;;;3.91;100.00;102976.78;10069814;28;20043;-76
2023/04/19 04:12:42;;;;;;;10.65;7.30;;;;;;;3.87;100.00;102978.25;10077300;28;20568;-76
2023/04/19 04:17:39;;;;;;;9.32;7.72;;;;;;;3.91;100.00;102963.25;10065699;28;20051;-74
2023/04/19 04:22:40;;;;;;;8.45;7.28;;;;;;;3.89;100.00;102970.75;10065954;28;20074;-73
2023/04/19 04:27:37;;;;;;;8.70;7.43;;;;;;;3.83;100.00;102971.66;10066402;28;20075;-74
2023/04/19 04:32:34;;;;;;;8.40;7.53;;;;;;;4.01;100.00;102973.59;10065473;28;20480;-74
2023/04/19 04:37:34;;;;;;;10.25;7.50;;;;;;;4.05;100.00;102979.41;10072804;28;20079;-75
2023/04/19 04:42:31;;;;;;;8.05;7.03;;;;;;;3.99;100.00;102979.25;10056477;28;20130;-75
2023/04/19 04:47:32;;;;;;;9.77;8.07;;;;;;;4.14;100.00;102980.81;10054825;28;20053;-75
2023/04/19 04:52:29;;;;;;;10.57;7.40;;;;;;;4.26;100.00;102981.75;10052215;28;20057;-75
2023/04/19 04:57:26;;;;;;;8.82;7.20;;;;;;;4.29;100.00;102970.47;10055023;28;20045;-73
2023/04/19 05:02:22;;;;;;;13.57;7.10;;;;;;;4.26;100.00;102983.66;10061114;28;20154;-71
2023/04/19 05:07:19;;;;;;;8.98;6.82;;;;;;;4.41;100.00;102982.28;10054253;28;20121;-72
2023/04/19 05:12:16;;;;;;;7.38;6.65;;;;;;;4.41;100.00;102974.16;10053852;28;20062;-72
2023/04/19 05:17:12;;;;;;;8.98;6.40;;;;;;;4.58;100.00;102984.44;10055378;28;20052;-71
2023/04/19 05:22:08;;;;;;;7.32;6.43;;;;;;;4.57;100.00;102977.34;10059110;28;20551;-72
2023/04/19 05:27:05;;;;;;;12.68;7.20;;;;;;;4.64;100.00;102983.53;10059280;28;20122;-71
2023/04/19 05:32:01;;;;;;;7.53;6.18;;;;;;;4.60;100.00;102985.03;10065391;28;20429;-72
2023/04/19 05:36:58;;;;;;;8.55;6.35;;;;;;;4.59;100.00;102975.25;10057054;28;20059;-71
2023/04/19 05:41:55;;;;;;;8.20;7.00;;;;;;;4.67;100.00;102971.44;10063489;28;20069;-71
2023/04/19 05:46:51;;;;;;;7.03;6.40;;;;;;;4.81;100.00;102965.66;10054123;28;20067;-72
2023/04/19 05:51:48;;;;;;;7.15;6.55;;;;;;;4.82;100.00;102969.19;10052244;28;20138;-72
2023/04/19 05:56:44;;;;;;;6.55;5.95;;;;;;;4.90;100.00;102959.91;10067193;28;20094;-71
2023/04/19 06:01:40;;;;;;;6.53;6.03;;;;;;;4.93;100.00;102960.31;10057134;28;20130;-72
2023/04/19 06:06:37;;;;;;;7.47;6.30;;;;;;;5.06;100.00;102959.34;10062921;28;20090;-72
2023/04/19 06:11:34;;;;;;;7.35;5.80;;;;;;;5.11;100.00;102966.81;10068082;28;20051;-71
2023/04/19 06:16:45;;;;;;;6.47;5.75;;;;;;;5.29;100.00;102964.06;10056476;28;20094;-72
2023/04/19 06:21:42;;;;;;;6.45;5.93;;;;;;;5.41;100.00;102964.16;10057401;28;20086;-71
2023/04/19 06:26:38;;;;;;;7.18;6.47;;;;;;;5.49;100.00;102958.41;10067201;28;20055;-72
2023/04/19 06:31:35;;;;;;;21.42;5.95;;;;;;;5.66;100.00;102956.72;10063682;28;20106;-72
2023/04/19 06:36:32;;;;;;;7.57;5.10;;;;;;;5.83;100.00;102950.66;10067702;28;20063;-71
2023/04/19 06:41:28;;;;;;;6.47;5.30;;;;;;;6.03;100.00;102959.34;10075660;28;20071;-71
2023/04/19 06:46:26;;;;;;;5.72;5.20;;;;;;;6.19;100.00;102954.31;10063077;28;20510;-71
2023/04/19 06:51:23;;;;;;;7.78;5.20;;;;;;;6.41;100.00;102955.41;10068581;28;20505;-71
2023/04/19 06:56:44;;;;;;;6.28;4.50;;;;;;;6.65;100.00;102949.97;10057145;28;20087;-71
2023/04/19 07:01:41;;;;;;;5.50;5.00;;;;;;;6.76;100.00;102951.88;10062209;28;20528;-72
2023/04/19 07:06:38;;;;;;;6.05;4.80;;;;;;;6.96;100.00;102940.59;10072395;28;20043;-72
2023/04/19 07:11:34;;;;;;;5.50;5.00;;;;;;;7.10;100.00;102952.03;10059672;28;20531;-68
2023/04/19 07:16:31;;;;;;;4.25;3.92;;;;;;;7.32;100.00;102949.53;10063144;28;20078;-68
2023/04/19 07:21:32;;;;;;;6.30;5.10;;;;;;;7.56;100.00;102947.53;10065342;28;20074;-68
2023/04/19 07:26:28;;;;;;;4.97;4.57;;;;;;;7.66;100.00;102936.00;10051984;28;20420;-68
2023/04/19 07:31:25;;;;;;;4.78;4.28;;;;;;;7.87;100.00;102929.06;10061462;28;20059;-68
2023/04/19 07:36:23;;;;;;;4.93;4.50;;;;;;;8.10;100.00;102923.47;10059870;28;20462;-67
2023/04/19 07:41:20;;;;;;;4.55;4.15;;;;;;;8.25;100.00;102941.13;10060830;28;20047;-68
2023/04/19 07:46:17;;;;;;;4.70;4.28;;;;;;;8.45;100.00;102941.50;10068518;28;20043;-67
2023/04/19 07:51:15;;;;;;;5.13;4.38;;;;;;;8.60;100.00;102940.88;10061552;28;20052;-68
2023/04/19 07:56:13;;;;;;;4.95;4.55;;;;;;;8.66;100.00;102925.41;10058998;28;20087;-68
2023/04/19 08:01:09;;;;;;;9.75;4.70;;;;;;;8.80;100.00;102921.28;10064028;28;20416;-68
2023/04/19 08:06:07;;;;;;;4.43;4.03;;;;;;;8.96;100.00;102935.97;10056008;28;20119;-68
2023/04/19 08:11:05;;;;;;;8.38;4.72;;;;;;;9.12;100.00;102928.75;10052176;28;20114;-67
2023/04/19 08:16:01;;;;;;;4.60;4.10;;;;;;;9.30;100.00;102928.44;10065915;28;20052;-68
2023/04/19 08:21:17;;;;;;;4.65;3.80;;;;;;;9.46;100.00;102927.53;10052067;28;20103;-69
2023/04/19 08:26:16;;;;;;;5.90;5.40;;;;;;;9.65;100.00;102916.25;10068359;28;20498;-68
2023/04/19 08:31:12;;;;;;;5.68;5.18;;;;;;;9.87;100.00;102919.75;10066230;28;20039;-68
2023/04/19 08:36:09;;;;;;;5.68;5.18;;;;;;;10.00;100.00;102917.69;10059518;28;20109;-68
2023/04/19 08:41:05;;;;;;;5.75;5.15;;;;;;;10.19;100.00;102910.75;10065468;28;20051;-68
2023/04/19 08:46:03;;;;;;;5.30;4.90;;;;;;;10.38;100.00;102896.69;10054145;28;20927;-68
2023/04/19 08:50:59;;;;;;;6.10;5.43;;;;;;;10.54;100.00;102895.72;10048009;28;20450;-68
2023/04/19 08:56:02;;;;;;;5.93;5.53;;;;;;;10.60;100.00;102883.69;10059674;28;20055;-68
2023/04/19 09:01:03;;;;;;;5.95;5.47;;;;;;;10.79;100.00;102883.25;10053205;28;20473;-68
2023/04/19 09:06:00;;;;;;;6.05;5.55;;;;;;;10.86;100.00;102881.06;10058456;28;20505;-68
2023/04/19 09:11:01;;;;;;;5.88;5.38;;;;;;;10.79;100.00;102885.97;10068596;28;20075;-67
2023/04/19 09:15:59;;;;;;;6.25;5.78;;;;;;;11.04;100.00;102875.13;10050399;28;20576;-68
2023/04/19 09:20:56;;;;;;;6.13;5.63;;;;;;;11.26;100.00;102869.47;10054679;28;20039;-68
2023/04/19 09:26:03;;;;;;;6.40;5.90;;;;;;;11.39;100.00;102857.16;10062774;28;20115;-68
2023/04/19 09:31:14;;;;;;;6.10;5.50;;;;;;;11.62;100.00;102849.53;10047717;28;20075;-68
2023/04/19 09:36:30;;;;;;;6.15;5.57;;;;;;;11.67;100.00;102857.75;10062681;28;20505;-68
2023/04/19 09:41:26;;;;;;;5.65;4.85;;;;;;;11.91;96.80;102842.44;10059643;28;20505;-68
2023/04/19 09:46:34;;;;;;;8.90;7.97;;;;;;;12.22;98.57;102842.41;10060321;28;20051;-68
2023/04/19 09:51:41;;;;;;;5.75;5.25;;;;;;;12.91;90.12;102826.25;10062173;28;20055;-69
2023/04/19 09:56:38;;;;;;;6.80;5.80;;;;;;;13.47;68.58;102809.44;10051308;28;20079;-68
2023/04/19 10:01:47;;;;;;;6.32;5.57;;;;;;;14.95;66.07;102815.34;10055809;28;20652;-69
2023/04/19 10:06:44;;;;;;;6.97;6.32;;;;;;;15.47;44.06;102807.13;10060097;28;20043;-68
2023/04/19 10:12:02;;;;;;;7.50;6.38;;;;;;;16.86;37.75;102803.44;10058723;28;20052;-68
2023/04/19 10:17:19;;;;;;;6.50;5.90;;;;;;;17.96;30.80;102790.28;10065253;28;20086;-68
2023/04/19 10:22:16;;;;;;;7.20;5.72;;;;;;;18.21;32.32;102792.34;10064312;28;20082;-68
2023/04/19 10:27:13;;;;;;;6.15;5.65;;;;;;;18.56;29.41;102781.38;10065947;28;20493;-68
2023/04/19 10:32:13;;;;;;;5.75;5.25;;;;;;;19.31;27.33;102778.56;10062422;28;20514;-68
2023/04/19 10:37:10;;;;;;;6.40;5.80;;;;;;;18.99;26.87;102780.66;10056319;28;20048;-69
2023/04/19 10:42:06;;;;;;;6.10;5.47;;;;;;;19.01;27.58;102770.06;10067540;28;20055;-68
2023/04/19 10:47:04;;;;;;;5.60;5.20;;;;;;;19.07;29.45;102765.97;10064234;28;20071;-69
2023/04/19 10:52:01;;;;;;;5.30;4.90;;;;;;;20.57;27.65;102762.47;10043594;28;20051;-68
2023/04/19 10:56:58;;;;;;;8.93;5.78;;;;;;;19.69;26.85;102742.59;10065380;28;20062;-68
2023/04/19 11:01:56;;;;;;;11.82;5.72;;;;;;;20.05;24.32;102752.44;10055914;28;20054;-68
2023/04/19 11:06:54;;;;;;;6.60;5.70;;;;;;;20.15;24.26;102740.94;10058153;28;20054;-69
2023/04/19 11:11:51;;;;;;;6.65;5.28;;;;;;;19.29;25.07;102736.47;10068729;28;20043;-69
2023/04/19 11:16:48;;;;;;;5.20;4.80;;;;;;;19.07;27.31;102723.59;10057248;28;20055;-69
2023/04/19 11:21:48;;;;;;;8.43;6.25;;;;;;;18.29;24.51;102721.53;10068658;28;20043;-68
2023/04/19 11:26:45;;;;;;;7.30;5.30;;;;;;;18.69;24.80;102719.47;10065389;28;20070;-68
2023/04/19 11:31:45;;;;;;;6.03;5.47;;;;;;;19.88;23.76;102725.53;10051186;28;20139;-68
2023/04/19 11:36:51;;;;;;;5.70;4.95;;;;;;;19.18;25.40;102716.56;10069692;28;20047;-68
2023/04/19 11:41:48;;;;;;;8.45;5.28;;;;;;;18.19;27.51;102706.03;10056694;28;20094;-68
2023/04/19 11:46:58;;;;;;;7.70;5.40;;;;;;;18.02;25.74;102706.00;10067372;28;20071;-68
2023/04/19 11:51:57;;;;;;;6.75;5.57;;;;;;;17.52;27.13;102693.22;10060057;28;20048;-68
2023/04/19 11:57:11;;;;;;;6.80;5.28;;;;;;;18.68;24.19;102701.25;10065374;28;20115;-68
2023/04/19 12:02:10;;;;;;;11.27;6.10;;;;;;;17.96;25.07;102707.25;10070182;28;20572;-68
2023/04/19 12:07:09;;;;;;;7.25;5.20;;;;;;;17.71;25.13;102701.28;10064668;28;20570;-68
2023/04/19 12:12:06;;;;;;;5.28;4.78;;;;;;;18.16;24.16;102690.06;10069251;28;20691;-68
2023/04/19 12:17:07;;;;;;;6.53;5.80;;;;;;;18.89;25.52;102695.88;10069699;28;20570;-68
2023/04/19 12:22:24;;;;;;;8.40;5.93;;;;;;;20.61;21.80;102685.59;10055885;28;20103;-68
2023/04/19 12:27:21;;;;;;;7.10;6.13;;;;;;;20.10;22.73;102666.16;10067064;28;20130;-69
2023/04/19 12:32:17;;;;;;;7.28;6.00;;;;;;;20.77;21.24;102666.31;10054337;28;20098;-68
2023/04/19 12:37:14;;;;;;;7.07;6.00;;;;;;;20.06;23.99;102669.94;10066454;28;20063;-68
2023/04/19 12:42:10;;;;;;;7.00;6.40;;;;;;;19.54;25.04;102677.31;10068434;28;20853;-68
2023/04/19 12:47:07;;;;;;;8.15;5.85;;;;;;;20.62;23.86;102680.84;10058291;28;20056;-69
2023/04/19 12:52:05;;;;;;;10.13;6.20;;;;;;;20.89;23.94;102658.06;10063859;28;20051;-68
2023/04/19 12:57:02;;;;;;;7.05;6.13;;;;;;;20.57;22.52;102654.09;10064621;28;20541;-69
2023/04/19 13:01:59;;;;;;;6.68;5.68;;;;;;;21.73;23.08;102668.94;10054841;28;20145;-69
2023/04/19 13:06:55;;;;;;;7.90;6.00;;;;;;;20.69;23.75;102656.91;10066593;28;20102;-69
2023/04/19 13:11:53;;;;;;;7.72;5.88;;;;;;;20.67;23.09;102667.56;10067419;28;20465;-68
2023/04/19 13:16:50;;;;;;;6.53;5.63;;;;;;;19.39;24.74;102641.81;10044032;28;20063;-68
2023/04/19 13:21:46;;;;;;;6.47;5.88;;;;;;;18.63;25.72;102643.19;10040847;28;20054;-68
2023/04/19 13:26:45;;;;;;;7.30;6.25;;;;;;;18.97;24.28;102636.03;10059475;28;20086;-69
2023/04/19 13:31:42;;;;;;;6.35;5.75;;;;;;;17.63;26.04;102635.66;10061502;28;20051;-68
2023/04/19 13:36:39;;;;;;;8.90;6.13;;;;;;;18.95;25.64;102635.53;10066462;28;20062;-69
2023/04/19 13:41:36;;;;;;;8.20;6.70;;;;;;;17.98;26.15;102633.03;10053994;28;20465;-69
2023/04/19 13:46:32;;;;;;;6.63;6.03;;;;;;;18.90;25.03;102619.09;10055830;28;20523;-69
2023/04/19 13:51:30;;;;;;;6.40;5.82;;;;;;;18.79;24.42;102620.56;10061072;28;20095;-68
2023/04/19 13:56:44;;;;;;;8.68;6.10;;;;;;;18.86;24.63;102623.66;10052878;28;20112;-69
2023/04/19 14:01:41;;;;;;;6.50;5.97;;;;;;;18.84;24.41;102614.84;10067104;28;20066;-69
2023/04/19 14:06:37;;;;;;;6.65;5.97;;;;;;;18.16;25.53;102606.22;10065939;28;20043;-68
2023/04/19 14:11:34;;;;;;;6.63;5.85;;;;;;;18.48;25.75;102608.50;10055674;28;20059;-68
2023/04/19 14:16:30;;;;;;;6.50;5.90;;;;;;;18.91;24.25;102615.16;10054072;28;20070;-68
2023/04/19 14:21:27;;;;;;;6.03;5.43;;;;;;;18.58;25.54;102612.91;10056309;28;20074;-68
2023/04/19 14:26:23;;;;;;;6.60;5.82;;;;;;;19.21;25.35;102585.56;10057333;28;20059;-68
2023/04/19 14:31:22;;;;;;;6.93;6.15;;;;;;;17.22;26.39;102570.44;10062649;28;20043;-68
2023/04/19 14:36:19;;;;;;;9.30;6.32;;;;;;;16.97;27.69;102589.31;10063548;28;20046;-67
2023/04/19 14:41:15;;;;;;;6.75;6.05;;;;;;;16.85;26.85;102586.34;10054172;28;20161;-68
2023/04/19 14:46:12;;;;;;;9.23;5.40;;;;;;;16.13;27.59;102584.41;10065473;28;20051;-68
2023/04/19 14:51:08;;;;;;;7.03;6.07;;;;;;;15.65;28.51;102571.88;10054748;28;20055;-68
2023/04/19 14:56:05;;;;;;;7.40;5.70;;;;;;;15.96;28.87;102576.78;10059395;28;20114;-68
2023/04/19 15:01:12;;;;;;;7.28;5.85;;;;;;;16.16;27.46;102559.78;10069913;28;20159;-69
2023/04/19 15:06:09;;;;;;;6.20;5.63;;;;;;;16.50;26.72;102563.97;10051618;28;20052;-68
2023/04/19 15:11:05;;;;;;;6.50;5.72;;;;;;;16.51;26.79;102557.28;10048291;28;20130;-69
2023/04/19 15:16:02;;;;;;;6.20;5.63;;;;;;;15.96;26.71;102571.25;10038835;28;20055;-68
2023/04/19 15:21:01;;;;;;;6.07;5.47;;;;;;;16.36;25.46;102563.19;10055960;28;20047;-68
2023/04/19 15:25:57;;;;;;;7.55;6.05;;;;;;;16.70;26.39;102550.75;10070348;28;20138;-68
2023/04/19 15:31:02;;;;;;;8.00;5.70;;;;;;;16.63;25.83;102552.00;10057457;28;20426;-68
2023/04/19 15:36:00;;;;;;;5.80;5.05;;;;;;;16.95;24.29;102541.84;10059055;28;20077;-69
2023/04/19 15:40:58;;;;;;;5.63;5.13;;;;;;;16.66;23.45;102530.44;10065038;28;20057;-68
2023/04/19 15:45:54;;;;;;;8.00;5.20;;;;;;;17.63;28.21;102536.09;10054886;28;20065;-71
2023/04/19 15:50:51;;;;;;;6.43;5.03;;;;;;;16.72;22.79;102537.47;10069322;28;20126;-72
2023/04/19 15:55:48;;;;;;;7.70;5.60;;;;;;;17.37;24.90;102536.00;10057563;28;20043;-72
2023/04/19 16:00:44;;;;;;;6.05;5.20;;;;;;;17.59;22.79;102544.22;10054839;28;20433;-71
2023/04/19 16:05:41;;;;;;;6.82;5.28;;;;;;;17.30;26.62;102519.88;10069333;28;20043;-71
2023/04/19 16:10:38;;;;;;;6.18;5.38;;;;;;;17.45;24.62;102526.91;10067622;28;20126;-71
2023/04/19 16:15:34;;;;;;;5.85;5.28;;;;;;;17.55;25.90;102531.38;10068051;28;20102;-72
2023/04/19 16:20:32;;;;;;;8.63;5.72;;;;;;;18.58;23.61;102540.88;10063760;28;20134;-72
2023/04/19 16:25:29;;;;;;;6.28;5.78;;;;;;;18.88;24.20;102521.59;10062041;28;20063;-72
2023/04/19 16:30:26;;;;;;;8.55;6.40;;;;;;;19.74;23.68;102531.47;10058952;28;20051;-72
2023/04/19 16:35:23;;;;;;;6.10;5.50;;;;;;;18.77;24.09;102531.41;10061060;28;20050;-72
2023/04/19 16:40:20;;;;;;;7.18;6.38;;;;;;;18.48;22.86;102530.16;10054222;28;20418;-72
2023/04/19 16:45:17;;;;;;;6.68;5.97;;;;;;;-146.18;100.00;67994.34;10057887;28;20087;-72
2023/04/19 16:50:13;;;;;;;6.50;5.88;;;;;;;-146.18;100.00;67994.34;10060153;28;20071;-72
2023/04/19 16:55:10;;;;;;;8.07;6.00;;;;;;;-146.18;100.00;67994.34;10061697;28;20062;-72
2023/04/19 17:00:07;;;;;;;6.35;5.53;;;;;;;-146.18;100.00;67994.34;10061164;28;20090;-71
2023/04/19 17:05:04;;;;;;;7.43;6.70;;;;;;;-146.18;100.00;67994.34;10057255;28;20059;-71
2023/04/19 17:10:01;;;;;;;6.35;5.70;;;;;;;-146.18;100.00;67994.34;10059649;28;20098;-72
2023/04/19 17:14:58;;;;;;;8.55;5.57;;;;;;;-146.18;100.00;67994.34;10064642;28;20399;-71
2023/04/19 17:19:55;;;;;;;7.60;5.38;;;;;;;-146.18;100.00;67994.34;10059982;28;20490;-72
2023/04/19 17:24:54;;;;;;;13.13;6.57;;;;;;;-146.18;100.00;67994.34;10054118;28;20094;-68
2023/04/19 17:29:51;;;;;;;6.53;5.85;;;;;;;-146.18;100.00;67994.34;10059516;28;20422;-69
2023/04/19 17:34:47;;;;;;;6.03;5.38;;;;;;;-146.18;100.00;67994.34;10051996;28;20047;-69
2023/04/19 17:39:44;;;;;;;6.93;5.85;;;;;;;-146.18;100.00;67994.34;10055682;28;20031;-69
2023/04/19 17:44:40;;;;;;;8.27;5.60;;;;;;;-146.18;100.00;67994.34;10053858;28;20146;-69
2023/04/19 17:49:38;;;;;;;6.13;5.03;;;;;;;-146.18;100.00;67994.34;10043289;28;20039;-68
2023/04/19 17:54:35;;;;;;;9.57;7.68;;;;;;;-146.18;100.00;67994.34;10070220;28;20852;-68
2023/04/19 17:59:31;;;;;;;7.72;6.07;;;;;;;-146.18;100.00;67994.34;10059777;28;20054;-69
2023/04/19 18:04:29;;;;;;;7.70;5.68;;;;;;;-146.18;100.00;67994.34;10050123;28;20047;-69
2023/04/19 18:09:26;;;;;;;6.38;5.40;;;;;;;-146.18;100.00;67994.34;10056079;28;20053;-69
2023/04/19 18:14:22;;;;;;;8.52;5.55;;;;;;;-146.18;100.00;67994.34;10060493;28;20062;-70
2023/04/19 18:19:19;;;;;;;6.10;5.50;;;;;;;-146.18;100.00;67994.34;10061495;28;20056;-70
2023/04/19 18:24:16;;;;;;;7.50;5.70;;;;;;;-146.18;100.00;67994.34;10058834;28;20051;-70
2023/04/19 18:29:14;;;;;;;8.75;5.63;;;;;;;-146.18;100.00;67994.34;10068250;28;20090;-70
2023/04/19 18:34:11;;;;;;;6.03;5.30;;;;;;;-146.18;100.00;67994.34;10070591;28;20677;-70
2023/04/19 18:39:08;;;;;;;6.40;5.78;;;;;;;-146.18;100.00;67994.34;10064856;28;20145;-70
2023/04/19 18:44:04;;;;;;;14.38;6.10;;;;;;;-146.18;100.00;67994.34;10068939;28;20047;-70
2023/04/19 18:49:03;;;;;;;5.93;5.32;;;;;;;-146.18;100.00;67994.34;10064000;28;20043;-70
2023/04/19 18:54:00;;;;;;;6.40;5.80;;;;;;;-146.18;100.00;67994.34;10067989;28;20070;-70
2023/04/19 18:58:56;;;;;;;9.40;5.80;;;;;;;-146.18;100.00;67994.34;10068132;28;20062;-70
2023/04/19 19:03:53;;;;;;;7.60;5.70;;;;;;;-146.18;100.00;67994.34;10069690;28;20089;-70
2023/04/19 19:09:09;;;;;;;9.93;6.53;;;;;;;-146.18;100.00;67994.34;10065629;28;20583;-70
2023/04/19 19:14:06;;;;;;;7.60;6.00;;;;;;;-146.18;100.00;67994.34;10076797;28;20059;-70
2023/04/19 19:19:02;;;;;;;6.90;6.20;;;;;;;-146.18;100.00;67994.34;10067058;28;20079;-70
2023/04/19 19:23:59;;;;;;;7.70;6.47;;;;;;;-146.18;100.00;67994.34;10070479;28;20071;-70
2023/04/19 19:28:56;;;;;;;7.75;6.43;;;;;;;-146.18;100.00;67994.34;10063057;28;20044;-70
2023/04/19 19:33:53;;;;;;;9.00;6.18;;;;;;;-146.18;100.00;67994.34;10059663;28;20055;-70
2023/04/19 19:39:10;;;;;;;7.97;6.05;;;;;;;-146.18;100.00;67994.34;10065777;28;20094;-70
2023/04/19 19:44:09;;;;;;;7.05;6.35;;;;;;;-146.18;100.00;67994.34;10050858;28;20768;-70
2023/04/19 19:49:05;;;;;;;7.05;6.00;;;;;;;-146.18;100.00;67994.34;10048941;28;20062;-70
2023/04/19 19:54:07;;;;;;;8.88;6.25;;;;;;;-146.18;100.00;67994.34;10066948;28;20051;-70
2023/04/19 19:59:04;;;;;;;8.07;6.18;;;;;;;-146.18;100.00;67994.34;10067111;28;20048;-70
2023/04/19 20:04:02;;;;;;;8.10;5.97;;;;;;;-146.18;100.00;67994.34;10059181;28;20059;-70
2023/04/19 20:08:59;;;;;;;7.38;5.95;;;;;;;-146.18;100.00;67994.34;10059517;28;20077;-70
2023/04/19 20:13:55;;;;;;;12.13;6.82;;;;;;;-146.18;100.00;67994.34;10020821;28;20044;-71
2023/04/19 20:18:53;;;;;;;6.40;5.80;;;;;;;-146.18;100.00;67994.34;10050457;28;20470;-71
2023/04/19 20:23:49;;;;;;;6.80;5.55;;;;;;;-146.18;100.00;67994.34;10053334;28;20051;-73
2023/04/19 20:28:46;;;;;;;7.43;5.47;;;;;;;-146.18;100.00;67994.34;10052297;28;20054;-73
2023/04/19 20:33:44;;;;;;;8.70;5.30;;;;;;;-146.18;100.00;67994.34;10056836;28;20047;-74
2023/04/19 20:38:41;;;;;;;7.55;5.38;;;;;;;-146.18;100.00;67994.34;10062250;28;20102;-74
2023/04/19 20:43:38;;;;;;;9.77;5.30;;;;;;;-146.18;100.00;67994.34;10051803;28;20138;-74
2023/04/19 20:48:34;;;;;;;11.68;6.03;;;;;;;-146.18;100.00;67994.34;10050377;28;20049;-73
2023/04/19 20:53:31;;;;;;;6.90;5.53;;;;;;;-146.18;100.00;67994.34;10054264;28;20135;-74
2023/04/19 20:58:27;;;;;;;8.70;6.38;;;;;;;-146.18;100.00;67994.34;10048591;28;20081;-73
2023/04/19 21:03:24;;;;;;;6.03;4.93;;;;;;;-146.18;100.00;67994.34;10058510;28;20065;-73
2023/04/19 21:08:22;;;;;;;7.28;4.85;;;;;;;-146.18;100.00;67994.34;10062080;28;20055;-73
2023/04/19 21:13:18;;;;;;;5.13;4.38;;;;;;;-146.18;100.00;67994.34;10064066;28;20110;-74
2023/04/19 21:18:16;;;;;;;5.57;4.95;;;;;;;-146.18;100.00;67994.34;10060806;28;20062;-74
2023/04/19 21:23:13;;;;;;;8.10;5.63;;;;;;;-146.18;100.00;67994.34;10057257;28;20039;-74
2023/04/19 21:28:09;;;;;;;7.03;4.80;;;;;;;-146.18;100.00;67994.34;10063019;28;20083;-75
2023/04/19 21:33:06;;;;;;;6.93;4.45;;;;;;;-146.18;100.00;67994.34;10066618;28;20079;-72
2023/04/19 21:38:02;;;;;;;10.30;5.15;;;;;;;-146.18;100.00;67994.34;10065484;28;20054;-74
2023/04/19 21:42:59;;;;;;;5.45;3.97;;;;;;;-146.18;100.00;67994.34;10070903;28;20490;-74
2023/04/19 21:47:55;;;;;;;5.95;4.30;;;;;;;-146.18;100.00;67994.34;10066827;28;20043;-74
2023/04/19 21:52:52;;;;;;;4.43;4.03;;;;;;;-146.18;100.00;67994.34;10068485;28;20130;-74
2023/04/19 21:57:48;;;;;;;9.82;5.25;;;;;;;-146.18;100.00;67994.34;10061603;28;20058;-76
2023/04/19 22:02:45;;;;;;;5.78;4.57;;;;;;;-146.18;100.00;67994.34;10063254;28;20043;-72
2023/04/19 22:07:43;;;;;;;6.88;4.50;;;;;;;-146.18;100.00;67994.34;10061770;28;20051;-72
2023/04/19 22:12:40;;;;;;;8.30;5.43;;;;;;;-146.18;100.00;67994.34;10061547;28;20081;-71
2023/04/19 22:17:53;;;;;;;6.43;4.47;;;;;;;-146.18;100.00;67994.34;10059414;28;20461;-73
2023/04/19 22:22:50;;;;;;;5.85;4.20;;;;;;;-146.18;100.00;67994.34;10057578;28;20122;-69
2023/04/19 22:27:47;;;;;;;5.32;4.57;;;;;;;-146.18;100.00;67994.34;10057438;28;20044;-71
2023/04/19 22:32:44;;;;;;;8.38;4.40;;;;;;;-146.18;100.00;67994.34;10055310;28;20802;-72
2023/04/19 22:37:40;;;;;;;8.43;4.25;;;;;;;-146.18;100.00;67994.34;10069009;28;20130;-73